createdAt,value
2023-04-26T00:00:44.236Z,4.14
2023-04-26T00:03:11.007Z,4.09
2023-04-26T00:05:38.189Z,4.05
2023-04-26T00:08:05.117Z,4.05
2023-04-26T00:10:31.641Z,4.13
2023-04-26T00:12:58.156Z,4.26
2023-04-26T00:15:24.670Z,4.36
2023-04-26T00:17:51.672Z,4.36
2023-04-26T00:20:18.253Z,4.33
2023-04-26T00:22:44.759Z,4.28
2023-04-26T00:25:11.239Z,4.18
2023-04-26T00:27:37.680Z,4.02
2023-04-26T00:30:04.627Z,3.92
2023-04-26T00:32:31.918Z,3.88
2023-04-26T00:34:58.395Z,3.86
2023-04-26T00:37:24.935Z,3.77
2023-04-26T00:39:51.519Z,3.72
2023-04-26T00:42:19.389Z,3.70
2023-04-26T00:44:46.066Z,3.73
2023-04-26T00:47:12.653Z,3.73
2023-04-26T00:49:39.281Z,3.68
2023-04-26T00:52:06.324Z,3.65
2023-04-26T00:54:32.944Z,3.67
2023-04-26T00:57:00.575Z,3.63
2023-04-26T00:59:27.528Z,3.59
2023-04-26T01:01:54.031Z,3.63
2023-04-26T01:04:21.558Z,3.66
2023-04-26T01:06:48.252Z,3.63
2023-04-26T01:09:15.684Z,3.63
2023-04-26T01:11:44.189Z,3.67
2023-04-26T01:14:11.371Z,3.68
2023-04-26T01:16:38.696Z,3.69
2023-04-26T01:19:15.260Z,3.68
2023-04-26T01:21:42.939Z,3.67
2023-04-26T01:24:13.462Z,3.71
2023-04-26T01:26:45.696Z,3.70
2023-04-26T01:29:22.279Z,3.68
2023-04-26T01:31:49.057Z,3.65
2023-04-26T01:34:15.957Z,3.68
2023-04-26T01:36:42.765Z,3.67
2023-04-26T01:39:09.483Z,3.53
2023-04-26T01:41:35.950Z,3.48
2023-04-26T01:44:02.611Z,3.37
2023-04-26T01:46:29.197Z,3.30
2023-04-26T01:48:55.707Z,3.30
2023-04-26T01:51:22.209Z,3.30
2023-04-26T01:53:48.880Z,3.30
2023-04-26T01:56:16.115Z,3.30
2023-04-26T01:58:42.598Z,3.19
2023-04-26T02:01:09.740Z,3.15
2023-04-26T02:03:36.427Z,3.13
2023-04-26T02:06:03.271Z,3.11
2023-04-26T02:08:30.027Z,3.07
2023-04-26T02:10:56.639Z,3.07
2023-04-26T02:13:23.245Z,3.04
2023-04-26T02:15:51.382Z,3.04
2023-04-26T02:18:21.782Z,3.05
2023-04-26T02:20:48.562Z,3.04
2023-04-26T02:23:15.059Z,2.99
2023-04-26T02:25:42.342Z,2.97
2023-04-26T02:28:08.823Z,2.97
2023-04-26T02:30:35.323Z,2.99
2023-04-26T02:33:02.316Z,2.96
2023-04-26T02:35:28.860Z,2.96
2023-04-26T02:37:55.302Z,2.95
2023-04-26T02:40:22.155Z,2.90
2023-04-26T02:42:48.727Z,2.90
2023-04-26T02:45:15.206Z,2.94
2023-04-26T02:47:41.671Z,2.94
2023-04-26T02:50:09.142Z,2.94
2023-04-26T02:52:38.944Z,2.91
2023-04-26T02:55:06.041Z,2.85
2023-04-26T02:57:32.971Z,2.81
2023-04-26T02:59:59.853Z,2.83
2023-04-26T03:02:26.553Z,2.82
2023-04-26T03:04:53.704Z,2.81
2023-04-26T03:07:20.228Z,2.81
2023-04-26T03:09:46.726Z,2.76
2023-04-26T03:12:13.214Z,2.75
2023-04-26T03:14:39.653Z,2.70
2023-04-26T03:17:06.567Z,2.75
2023-04-26T03:19:33.041Z,2.72
2023-04-26T03:21:59.571Z,2.74
2023-04-26T03:24:26.208Z,2.82
2023-04-26T03:26:52.712Z,2.86
2023-04-26T03:29:19.158Z,2.86
2023-04-26T03:31:45.761Z,2.90
2023-04-26T03:34:12.289Z,2.90
2023-04-26T03:36:38.904Z,2.91
2023-04-26T03:39:08.424Z,2.86
2023-04-26T03:41:36.961Z,2.88
2023-04-26T03:44:03.574Z,2.84
2023-04-26T03:46:30.130Z,2.86
2023-04-26T03:48:56.597Z,2.84
2023-04-26T03:51:23.060Z,2.81
2023-04-26T03:53:49.536Z,2.70
2023-04-26T03:56:16.013Z,2.62
2023-04-26T03:58:43.227Z,2.58
2023-04-26T04:01:09.759Z,2.54
2023-04-26T04:03:37.885Z,2.53
2023-04-26T04:06:06.720Z,2.57
2023-04-26T04:08:33.834Z,2.59
2023-04-26T04:11:01.517Z,2.62
2023-04-26T04:13:28.216Z,2.60
2023-04-26T04:15:54.740Z,2.64
2023-04-26T04:18:21.275Z,2.57
2023-04-26T04:20:47.707Z,2.55
2023-04-26T04:23:14.213Z,2.58
2023-04-26T04:25:41.096Z,2.58
2023-04-26T04:28:08.582Z,2.57
2023-04-26T04:30:35.570Z,2.59
2023-04-26T04:33:03.314Z,2.51
2023-04-26T04:35:33.611Z,2.53
2023-04-26T04:38:00.696Z,2.59
2023-04-26T04:40:27.781Z,2.59
2023-04-26T04:42:54.857Z,2.58
2023-04-26T04:45:21.668Z,2.56
2023-04-26T04:47:48.433Z,2.58
2023-04-26T04:50:14.982Z,2.61
2023-04-26T04:52:42.500Z,2.79
2023-04-26T04:55:09.141Z,2.89
2023-04-26T04:57:36.019Z,2.95
2023-04-26T05:00:09.861Z,2.94
2023-04-26T05:02:37.390Z,2.96
2023-04-26T05:05:05.467Z,2.97
2023-04-26T05:07:32.552Z,3.01
2023-04-26T05:09:59.988Z,3.16
2023-04-26T05:12:26.743Z,3.16
2023-04-26T05:14:53.382Z,3.16
2023-04-26T05:17:20.213Z,3.19
2023-04-26T05:19:47.277Z,3.24
2023-04-26T05:22:18.596Z,3.22
2023-04-26T05:24:47.045Z,3.30
2023-04-26T05:27:14.379Z,3.37
2023-04-26T05:29:41.662Z,3.34
2023-04-26T05:32:08.593Z,3.40
2023-04-26T05:34:35.503Z,3.46
2023-04-26T05:37:02.109Z,3.49
2023-04-26T05:39:28.593Z,3.46
2023-04-26T05:41:55.089Z,3.60
2023-04-26T05:44:21.522Z,3.66
2023-04-26T05:46:48.006Z,3.78
2023-04-26T05:49:14.507Z,3.87
2023-04-26T05:51:41.125Z,3.95
2023-04-26T05:54:07.710Z,4.17
2023-04-26T05:56:34.251Z,4.27
2023-04-26T05:59:00.825Z,4.42
2023-04-26T06:01:27.816Z,4.57
2023-04-26T06:03:57.880Z,4.75
2023-04-26T06:06:28.448Z,4.92
2023-04-26T06:08:55.460Z,5.03
2023-04-26T06:11:22.316Z,5.20
2023-04-26T06:13:48.826Z,5.32
2023-04-26T06:16:15.974Z,5.39
2023-04-26T06:18:42.879Z,5.47
2023-04-26T06:21:09.412Z,5.50
2023-04-26T06:23:35.889Z,5.53
2023-04-26T06:26:02.372Z,5.60
2023-04-26T06:28:28.879Z,5.67
2023-04-26T06:30:55.468Z,5.83
2023-04-26T06:33:22.115Z,6.00
2023-04-26T06:35:48.630Z,6.11
2023-04-26T06:38:15.149Z,6.23
2023-04-26T06:40:41.707Z,6.39
2023-04-26T06:43:08.157Z,6.49
2023-04-26T06:45:34.777Z,6.46
2023-04-26T06:48:02.008Z,6.53
2023-04-26T06:50:28.504Z,6.44
2023-04-26T06:52:55.020Z,6.52
2023-04-26T06:55:21.606Z,6.59
2023-04-26T06:57:49.832Z,6.62
2023-04-26T07:00:16.617Z,6.75
2023-04-26T07:02:43.233Z,6.79
2023-04-26T07:05:10.180Z,6.88
2023-04-26T07:07:36.740Z,6.87
2023-04-26T07:10:03.978Z,6.88
2023-04-26T07:12:31.266Z,7.09
2023-04-26T07:14:58.055Z,7.21
2023-04-26T07:17:24.632Z,7.34
2023-04-26T07:19:51.161Z,7.39
2023-04-26T07:22:17.643Z,7.37
2023-04-26T07:24:44.143Z,7.52
2023-04-26T07:27:11.064Z,7.61
2023-04-26T07:29:38.827Z,7.74
2023-04-26T07:32:05.596Z,7.78
2023-04-26T07:34:32.330Z,7.89
2023-04-26T07:36:58.958Z,7.93
2023-04-26T07:39:25.486Z,7.83
2023-04-26T07:41:52.008Z,7.78
2023-04-26T07:44:18.485Z,7.89
2023-04-26T07:46:45.076Z,7.98
2023-04-26T07:49:11.506Z,7.94
2023-04-26T07:51:38.003Z,7.87
2023-04-26T07:54:04.550Z,7.81
2023-04-26T07:56:30.996Z,7.80
2023-04-26T07:58:57.501Z,7.84
2023-04-26T08:01:24.011Z,7.94
2023-04-26T08:03:50.974Z,8.07
2023-04-26T08:06:17.898Z,8.09
2023-04-26T08:08:50.487Z,8.16
2023-04-26T08:11:17.509Z,8.23
2023-04-26T08:13:44.239Z,8.36
2023-04-26T08:16:10.937Z,8.37
2023-04-26T08:18:37.516Z,8.43
2023-04-26T08:21:04.360Z,8.57
2023-04-26T08:23:36.529Z,8.78
2023-04-26T08:26:03.319Z,8.89
2023-04-26T08:28:29.974Z,8.86
2023-04-26T08:30:56.696Z,8.87
2023-04-26T08:33:23.224Z,8.86
2023-04-26T08:35:49.816Z,8.87
2023-04-26T08:38:16.384Z,8.96
2023-04-26T08:40:46.576Z,9.02
2023-04-26T08:43:15.352Z,8.94
2023-04-26T08:45:45.759Z,8.86
2023-04-26T08:48:16.176Z,8.86
2023-04-26T08:50:46.022Z,8.96
2023-04-26T08:53:19.648Z,8.98
2023-04-26T08:55:50.638Z,8.95
2023-04-26T08:58:18.111Z,9.01
2023-04-26T09:00:48.535Z,8.97
2023-04-26T09:03:15.302Z,8.94
2023-04-26T09:05:45.560Z,8.98
2023-04-26T09:08:17.339Z,9.01
2023-04-26T09:10:43.839Z,8.91
2023-04-26T09:13:11.398Z,8.70
2023-04-26T09:15:38.290Z,8.70
2023-04-26T09:18:18.996Z,8.76
2023-04-26T09:20:46.132Z,8.78
2023-04-26T09:23:12.608Z,8.70
2023-04-26T09:25:39.656Z,8.60
2023-04-26T09:28:22.562Z,8.64
2023-04-26T09:30:49.480Z,8.75
2023-04-26T09:33:16.234Z,8.75
2023-04-26T09:35:44.209Z,8.81
2023-04-26T09:38:15.022Z,8.84
2023-04-26T09:40:46.886Z,8.80
2023-04-26T09:43:17.645Z,8.79
2023-04-26T09:45:50.603Z,8.88
2023-04-26T09:48:22.833Z,8.89
2023-04-26T09:50:52.548Z,8.94
2023-04-26T09:53:29.602Z,8.96
2023-04-26T09:55:57.158Z,8.90
2023-04-26T09:58:23.816Z,8.84
2023-04-26T10:00:52.332Z,8.95
2023-04-26T10:03:20.932Z,8.97
2023-04-26T10:05:48.080Z,8.84
2023-04-26T10:08:15.065Z,8.83
2023-04-26T10:10:42.715Z,8.76
2023-04-26T10:13:11.994Z,8.80
2023-04-26T10:15:39.895Z,8.83
2023-04-26T10:18:06.951Z,8.87
2023-04-26T10:20:36.104Z,8.96
2023-04-26T10:23:05.270Z,9.09
2023-04-26T10:25:39.114Z,9.21
2023-04-26T10:28:06.014Z,9.21
2023-04-26T10:30:32.844Z,9.34
2023-04-26T10:32:59.351Z,9.32
2023-04-26T10:35:27.853Z,9.41
2023-04-26T10:38:00.317Z,9.61
2023-04-26T10:40:34.844Z,9.91
2023-04-26T10:43:16.747Z,10.02
2023-04-26T10:45:44.943Z,10.21
2023-04-26T10:48:20.260Z,10.38
2023-04-26T10:50:59.367Z,10.61
2023-04-26T10:53:26.022Z,10.46
2023-04-26T10:55:52.810Z,10.25
2023-04-26T10:58:29.913Z,10.12
2023-04-26T11:01:13.446Z,9.95
2023-04-26T11:04:01.571Z,9.91
2023-04-26T11:06:47.788Z,9.90
2023-04-26T11:09:48.956Z,9.78
2023-04-26T11:12:16.643Z,9.68
2023-04-26T11:14:44.194Z,9.38
2023-04-26T11:17:10.978Z,9.16
2023-04-26T11:19:37.450Z,9.14
2023-04-26T11:22:07.234Z,9.17
2023-04-26T11:24:38.854Z,9.15
2023-04-26T11:27:09.841Z,9.11
2023-04-26T11:29:36.825Z,9.14
2023-04-26T11:32:03.789Z,9.15
2023-04-26T11:34:35.384Z,9.15
2023-04-26T11:37:06.375Z,9.28
2023-04-26T11:39:33.498Z,9.26
2023-04-26T11:42:12.569Z,9.34
2023-04-26T11:44:40.439Z,9.29
2023-04-26T11:47:08.084Z,9.37
2023-04-26T11:49:37.582Z,9.47
2023-04-26T11:52:05.968Z,9.47
2023-04-26T11:54:34.065Z,9.53
2023-04-26T11:57:02.032Z,9.59
2023-04-26T11:59:30.782Z,9.60
2023-04-26T12:01:57.939Z,9.60
2023-04-26T12:04:31.166Z,9.70
2023-04-26T12:06:58.507Z,9.79
2023-04-26T12:09:28.228Z,9.83
2023-04-26T12:12:02.045Z,9.93
2023-04-26T12:14:39.487Z,9.81
2023-04-26T12:17:07.447Z,9.81
2023-04-26T12:19:38.249Z,9.87
2023-04-26T12:22:06.823Z,9.90
2023-04-26T12:24:35.835Z,9.99
2023-04-26T12:27:09.440Z,10.10
2023-04-26T12:29:35.948Z,10.21
2023-04-26T12:32:03.699Z,10.37
2023-04-26T12:34:30.980Z,10.49
2023-04-26T12:36:57.648Z,10.59
2023-04-26T12:39:24.142Z,10.49
2023-04-26T12:41:50.647Z,10.46
2023-04-26T12:44:18.348Z,10.64
2023-04-26T12:46:46.290Z,10.81
2023-04-26T12:49:12.812Z,11.06
2023-04-26T12:51:39.368Z,11.50
2023-04-26T12:54:05.968Z,11.80
2023-04-26T12:56:33.761Z,12.63
2023-04-26T12:59:00.437Z,13.17
2023-04-26T13:01:27.174Z,13.05
2023-04-26T13:03:55.649Z,12.98
2023-04-26T13:06:22.446Z,12.66
2023-04-26T13:08:48.889Z,12.46
2023-04-26T13:11:16.383Z,12.23
2023-04-26T13:13:44.671Z,11.97
2023-04-26T13:16:12.828Z,11.88
2023-04-26T13:18:40.335Z,11.91
2023-04-26T13:21:07.962Z,11.72
2023-04-26T13:23:34.539Z,11.41
2023-04-26T13:26:01.002Z,11.29
2023-04-26T13:28:27.455Z,11.34
2023-04-26T13:30:54.171Z,11.38
2023-04-26T13:33:21.391Z,11.42
2023-04-26T13:35:48.188Z,11.25
2023-04-26T13:38:15.415Z,11.25
2023-04-26T13:40:42.183Z,11.13
2023-04-26T13:43:08.685Z,11.02
2023-04-26T13:45:36.660Z,11.00
2023-04-26T13:48:03.367Z,11.18
2023-04-26T13:50:29.902Z,11.20
2023-04-26T13:52:56.656Z,11.20
2023-04-26T13:55:23.440Z,11.12
2023-04-26T13:57:49.964Z,11.22
2023-04-26T14:00:16.987Z,11.05
2023-04-26T14:02:43.669Z,11.00
2023-04-26T14:05:10.518Z,11.04
2023-04-26T14:07:37.193Z,11.08
2023-04-26T14:10:04.515Z,11.00
2023-04-26T14:12:31.045Z,10.99
2023-04-26T14:14:57.591Z,10.87
2023-04-26T14:17:25.270Z,10.74
2023-04-26T14:19:54.591Z,10.77
2023-04-26T14:22:21.362Z,10.81
2023-04-26T14:24:47.984Z,10.85
2023-04-26T14:27:14.831Z,10.90
2023-04-26T14:29:41.371Z,10.98
2023-04-26T14:32:08.010Z,11.05
2023-04-26T14:34:38.991Z,11.00
2023-04-26T14:37:06.852Z,10.95
2023-04-26T14:39:33.625Z,10.81
2023-04-26T14:42:00.145Z,10.77
2023-04-26T14:44:27.391Z,10.71
2023-04-26T14:46:53.870Z,10.78
2023-04-26T14:49:20.575Z,10.90
2023-04-26T14:51:47.168Z,11.00
2023-04-26T14:54:13.692Z,11.09
2023-04-26T14:56:40.523Z,11.06
2023-04-26T14:59:07.961Z,11.16
2023-04-26T15:01:34.491Z,11.24
2023-04-26T15:04:01.654Z,11.35
2023-04-26T15:06:28.752Z,11.30
2023-04-26T15:08:55.229Z,11.31
2023-04-26T15:11:21.686Z,11.19
2023-04-26T15:13:48.161Z,11.11
2023-04-26T15:16:14.706Z,10.99
2023-04-26T15:18:41.354Z,11.03
2023-04-26T15:21:07.858Z,11.03
2023-04-26T15:23:34.362Z,11.10
2023-04-26T15:26:04.308Z,11.16
2023-04-26T15:28:31.086Z,11.12
2023-04-26T15:31:05.429Z,11.08
2023-04-26T15:33:31.907Z,10.96
2023-04-26T15:35:58.482Z,10.90
2023-04-26T15:38:25.163Z,10.94
2023-04-26T15:40:51.743Z,10.90
2023-04-26T15:43:18.495Z,10.81
2023-04-26T15:45:45.412Z,10.77
2023-04-26T15:48:12.211Z,10.74
2023-04-26T15:50:38.806Z,10.69
2023-04-26T15:53:05.277Z,10.59
2023-04-26T15:55:34.724Z,10.66
2023-04-26T15:58:01.226Z,10.58
2023-04-26T16:00:28.427Z,10.65
2023-04-26T16:02:55.103Z,10.66
2023-04-26T16:05:21.680Z,10.73
2023-04-26T16:07:48.254Z,10.71
2023-04-26T16:10:14.748Z,10.73
2023-04-26T16:12:42.370Z,10.74
2023-04-26T16:15:09.677Z,10.65
2023-04-26T16:17:37.452Z,10.76
2023-04-26T16:20:06.773Z,10.89
2023-04-26T16:22:33.905Z,10.78
2023-04-26T16:25:00.766Z,10.71
2023-04-26T16:27:27.447Z,10.54
2023-04-26T16:29:54.473Z,10.52
2023-04-26T16:32:21.648Z,10.71
2023-04-26T16:34:48.191Z,10.78
2023-04-26T16:37:14.828Z,10.92
2023-04-26T16:39:41.343Z,10.91
2023-04-26T16:42:07.879Z,10.82
2023-04-26T16:44:34.430Z,10.81
2023-04-26T16:47:01.684Z,10.68
2023-04-26T16:49:28.242Z,10.51
2023-04-26T16:51:58.759Z,10.57
2023-04-26T16:54:26.091Z,10.54
2023-04-26T16:56:52.570Z,10.59
2023-04-26T16:59:19.375Z,10.76
2023-04-26T17:01:47.304Z,10.74
2023-04-26T17:04:14.078Z,10.76
2023-04-26T17:06:40.821Z,10.86
2023-04-26T17:09:08.294Z,10.93
2023-04-26T17:11:37.150Z,10.95
2023-04-26T17:14:04.320Z,10.95
2023-04-26T17:16:30.888Z,10.91
2023-04-26T17:18:58.380Z,10.92
2023-04-26T17:21:25.276Z,10.94
2023-04-26T17:23:51.729Z,10.94
2023-04-26T17:26:18.232Z,10.85
2023-04-26T17:28:44.694Z,10.68
2023-04-26T17:31:11.323Z,10.62
2023-04-26T17:33:37.836Z,10.59
2023-04-26T17:36:04.753Z,10.56
2023-04-26T17:38:31.243Z,10.46
2023-04-26T17:40:57.734Z,10.49
2023-04-26T17:43:24.220Z,10.49
2023-04-26T17:45:50.766Z,10.45
2023-04-26T17:48:17.324Z,10.43
2023-04-26T17:50:43.814Z,10.41
2023-04-26T17:53:10.792Z,10.37
2023-04-26T17:55:37.466Z,10.40
2023-04-26T17:58:03.968Z,10.40
2023-04-26T18:00:30.491Z,10.46
2023-04-26T18:02:58.094Z,10.43
2023-04-26T18:05:25.124Z,10.40
2023-04-26T18:07:51.823Z,10.37
2023-04-26T18:10:18.439Z,10.30
2023-04-26T18:12:44.954Z,10.30
2023-04-26T18:15:12.325Z,10.25
2023-04-26T18:17:39.026Z,10.16
2023-04-26T18:20:06.683Z,10.12
2023-04-26T18:22:33.259Z,10.12
2023-04-26T18:24:59.749Z,10.07
2023-04-26T18:27:26.609Z,9.96
2023-04-26T18:29:53.112Z,9.87
2023-04-26T18:32:19.553Z,9.86
2023-04-26T18:34:46.588Z,9.93
2023-04-26T18:37:13.025Z,9.84
2023-04-26T18:39:39.505Z,9.77
2023-04-26T18:42:07.086Z,9.72
2023-04-26T18:44:33.596Z,9.73
2023-04-26T18:47:00.053Z,9.68
2023-04-26T18:49:27.272Z,9.68
2023-04-26T18:51:53.946Z,9.64
2023-04-26T18:54:20.398Z,9.56
2023-04-26T18:56:46.827Z,9.58
2023-04-26T18:59:13.315Z,9.56
2023-04-26T19:01:40.418Z,9.55
2023-04-26T19:04:09.056Z,9.51
2023-04-26T19:06:36.028Z,9.46
2023-04-26T19:09:02.584Z,9.45
2023-04-26T19:11:29.139Z,9.38
2023-04-26T19:13:55.838Z,9.33
2023-04-26T19:16:22.443Z,9.31
2023-04-26T19:18:49.164Z,9.36
2023-04-26T19:21:16.264Z,9.26
2023-04-26T19:23:44.779Z,9.19
2023-04-26T19:26:12.698Z,9.18
2023-04-26T19:28:39.368Z,9.09
2023-04-26T19:31:06.228Z,9.13
2023-04-26T19:33:32.770Z,9.20
2023-04-26T19:35:59.307Z,9.15
2023-04-26T19:38:26.012Z,9.06
2023-04-26T19:40:53.119Z,8.98
2023-04-26T19:43:20.519Z,8.99
2023-04-26T19:45:47.464Z,8.95
2023-04-26T19:48:14.089Z,8.90
2023-04-26T19:50:42.209Z,8.84
2023-04-26T19:53:10.112Z,8.78
2023-04-26T19:55:41.017Z,8.75
2023-04-26T19:58:08.303Z,8.72
2023-04-26T20:00:39.144Z,8.69
2023-04-26T20:03:06.302Z,8.63
2023-04-26T20:05:33.637Z,8.59
2023-04-26T20:08:00.398Z,8.55
2023-04-26T20:10:30.924Z,8.55
2023-04-26T20:12:57.757Z,8.51
2023-04-26T20:15:24.361Z,8.45
2023-04-26T20:17:50.909Z,8.33
2023-04-26T20:20:17.779Z,8.27
2023-04-26T20:22:44.279Z,8.23
2023-04-26T20:25:10.905Z,8.18
2023-04-26T20:27:37.554Z,8.12
2023-04-26T20:30:04.746Z,7.99
2023-04-26T20:32:31.525Z,7.84
2023-04-26T20:34:58.196Z,7.83
2023-04-26T20:37:24.678Z,7.93
2023-04-26T20:39:51.398Z,7.92
2023-04-26T20:42:17.883Z,7.86
2023-04-26T20:44:44.398Z,7.81
2023-04-26T20:47:10.855Z,7.79
2023-04-26T20:49:37.406Z,7.76
2023-04-26T20:52:04.214Z,7.67
2023-04-26T20:54:31.555Z,7.59
2023-04-26T20:56:58.027Z,7.60
2023-04-26T20:59:25.284Z,7.57
2023-04-26T21:01:53.220Z,7.41
2023-04-26T21:04:20.016Z,7.33
2023-04-26T21:06:46.604Z,7.35
2023-04-26T21:09:13.381Z,7.27
2023-04-26T21:11:39.855Z,7.26
2023-04-26T21:14:06.852Z,7.23
2023-04-26T21:16:33.371Z,7.15
2023-04-26T21:18:59.843Z,7.05
2023-04-26T21:21:28.293Z,6.95
2023-04-26T21:23:55.017Z,6.93
2023-04-26T21:26:21.503Z,6.90
2023-04-26T21:28:47.949Z,7.01
2023-04-26T21:31:14.483Z,6.93
2023-04-26T21:33:41.096Z,6.66
2023-04-26T21:36:07.871Z,6.66
2023-04-26T21:38:34.833Z,6.64
2023-04-26T21:41:01.348Z,6.55
2023-04-26T21:43:27.794Z,6.50
2023-04-26T21:45:58.232Z,6.46
2023-04-26T21:48:26.198Z,6.30
2023-04-26T21:50:52.985Z,6.21
2023-04-26T21:53:19.454Z,6.11
2023-04-26T21:55:53.856Z,6.10
2023-04-26T21:58:21.441Z,6.05
2023-04-26T22:00:48.775Z,5.92
2023-04-26T22:03:16.150Z,5.80
2023-04-26T22:05:42.921Z,5.85
2023-04-26T22:08:09.358Z,5.95
2023-04-26T22:10:36.963Z,6.05
2023-04-26T22:13:03.771Z,6.00
2023-04-26T22:15:30.792Z,5.87
2023-04-26T22:17:57.412Z,5.92
2023-04-26T22:20:23.936Z,5.89
2023-04-26T22:22:50.397Z,5.87
2023-04-26T22:25:16.871Z,5.76
2023-04-26T22:27:43.353Z,5.76
2023-04-26T22:30:23.691Z,5.69
2023-04-26T22:32:55.525Z,5.59
2023-04-26T22:35:26.751Z,5.59
2023-04-26T22:37:53.989Z,5.59
2023-04-26T22:40:20.560Z,5.55
2023-04-26T22:42:47.171Z,5.49
2023-04-26T22:45:14.144Z,5.44
2023-04-26T22:47:40.999Z,5.44
2023-04-26T22:50:08.364Z,5.37
2023-04-26T22:52:35.459Z,5.39
2023-04-26T22:55:01.920Z,5.39
2023-04-26T22:57:29.446Z,5.36
2023-04-26T22:59:56.000Z,5.34
2023-04-26T23:02:22.489Z,5.28
2023-04-26T23:04:48.985Z,5.30
2023-04-26T23:07:16.383Z,5.24
2023-04-26T23:09:42.955Z,5.14
2023-04-26T23:12:09.797Z,5.13
2023-04-26T23:14:36.349Z,5.14
2023-04-26T23:17:02.970Z,5.08
2023-04-26T23:19:29.604Z,5.06
2023-04-26T23:21:56.345Z,4.96
2023-04-26T23:24:22.871Z,4.92
2023-04-26T23:26:49.489Z,4.97
2023-04-26T23:29:15.958Z,4.94
2023-04-26T23:31:42.649Z,4.98
2023-04-26T23:34:09.193Z,5.01
2023-04-26T23:36:35.706Z,5.04
2023-04-26T23:39:02.116Z,4.98
2023-04-26T23:41:28.580Z,4.84
2023-04-26T23:43:55.102Z,4.77
2023-04-26T23:46:21.639Z,4.74
2023-04-26T23:48:48.174Z,4.71
2023-04-26T23:51:14.602Z,4.68
2023-04-26T23:53:41.172Z,4.61
2023-04-26T23:56:07.766Z,4.59
2023-04-26T23:58:34.290Z,4.54
